Metar Aviation Weather Data YMML

8°C Temp
5°C Dewpoint
% Humidity
Temperature
29 KM/H
18 MPH
16 KTS
250°
West South
West

Wind Speed
Mostly Cloudy
Conditions
Pressure 1013.92 (hPa) - 29.94 (in)
Visibility 6.2 (mi) - 10 (km)

Current Conditions
YMML
Metar :YMML 011000Z 25016KT 9999 BKN035 08/05 Q1014 FM1000 MOD TURB BLW 5000FT
Mon 1st June 21:00 pm

  Metar Aviation API Data Provided by https://www.checkwx.com/ PHP scripts by weather34.com ©2020